createdAt,value
2022-10-29T00:00:45.065Z,6.20
2022-10-29T00:03:11.636Z,5.93
2022-10-29T00:05:38.172Z,5.93
2022-10-29T00:08:05.011Z,5.77
2022-10-29T00:10:31.563Z,6.23
2022-10-29T00:13:02.363Z,5.87
2022-10-29T00:15:29.372Z,6.50
2022-10-29T00:17:56.410Z,6.47
2022-10-29T00:20:24.063Z,5.60
2022-10-29T00:22:54.373Z,5.73
2022-10-29T00:25:21.161Z,6.27
2022-10-29T00:27:47.772Z,6.97
2022-10-29T00:30:14.337Z,6.80
2022-10-29T00:32:40.917Z,6.37
2022-10-29T00:35:07.772Z,5.57
2022-10-29T00:37:35.776Z,6.77
2022-10-29T00:40:02.500Z,5.60
2022-10-29T00:42:28.993Z,6.53
2022-10-29T00:44:55.595Z,5.57
2022-10-29T00:47:36.573Z,6.00
2022-10-29T00:50:04.461Z,5.40
2022-10-29T00:52:32.476Z,6.37
2022-10-29T00:55:01.328Z,6.03
2022-10-29T00:57:34.488Z,5.60
2022-10-29T01:00:02.525Z,6.10
2022-10-29T01:02:29.847Z,5.83
2022-10-29T01:04:56.533Z,6.33
2022-10-29T01:07:23.255Z,5.93
2022-10-29T01:09:50.025Z,5.60
2022-10-29T01:12:55.045Z,6.10
2022-10-29T01:15:31.919Z,5.63
2022-10-29T01:18:31.194Z,5.67
2022-10-29T01:21:25.899Z,5.33
2022-10-29T01:23:55.551Z,6.27
2022-10-29T01:27:02.727Z,5.73
2022-10-29T01:30:05.282Z,5.63
2022-10-29T01:33:04.201Z,5.40
2022-10-29T01:35:57.154Z,6.10
2022-10-29T01:38:53.272Z,6.23
2022-10-29T01:41:49.102Z,5.60
2022-10-29T01:44:27.568Z,5.57
2022-10-29T01:47:02.452Z,6.17
2022-10-29T01:49:36.471Z,5.63
2022-10-29T01:52:05.000Z,6.07
2022-10-29T01:54:31.820Z,5.70
2022-10-29T01:56:59.493Z,6.57
2022-10-29T01:59:43.272Z,6.03
2022-10-29T02:02:48.092Z,6.13
2022-10-29T02:05:33.588Z,6.03
2022-10-29T02:08:41.165Z,6.40
2022-10-29T02:11:07.771Z,6.33
2022-10-29T02:13:39.392Z,5.77
2022-10-29T02:16:07.737Z,6.57
2022-10-29T02:18:53.389Z,6.77
2022-10-29T02:21:20.802Z,6.93
2022-10-29T02:23:47.596Z,6.17
2022-10-29T02:26:14.458Z,5.73
2022-10-29T02:28:41.069Z,5.40
2022-10-29T02:31:08.212Z,5.73
2022-10-29T02:33:34.729Z,5.90
2022-10-29T02:36:01.473Z,6.00
2022-10-29T02:38:28.031Z,5.57
2022-10-29T02:40:54.525Z,6.30
2022-10-29T02:43:21.112Z,6.40
2022-10-29T02:45:47.651Z,5.93
2022-10-29T02:48:14.220Z,6.00
2022-10-29T02:50:40.731Z,5.27
2022-10-29T02:53:07.275Z,6.67
2022-10-29T02:55:33.741Z,5.97
2022-10-29T02:58:00.340Z,5.80
2022-10-29T03:00:26.859Z,6.53
2022-10-29T03:02:53.742Z,6.47
2022-10-29T03:05:20.413Z,6.20
2022-10-29T03:07:46.983Z,6.23
2022-10-29T03:10:13.635Z,5.73
2022-10-29T03:12:40.132Z,5.87
2022-10-29T03:15:07.386Z,6.30
2022-10-29T03:17:34.045Z,5.50
2022-10-29T03:20:00.589Z,5.87
2022-10-29T03:22:27.081Z,5.63
2022-10-29T03:24:53.573Z,5.63
2022-10-29T03:27:20.254Z,5.27
2022-10-29T03:29:46.832Z,5.33
2022-10-29T03:32:13.293Z,5.53
2022-10-29T03:34:39.816Z,6.20
2022-10-29T03:37:06.319Z,5.53
2022-10-29T03:39:32.878Z,5.50
2022-10-29T03:41:59.380Z,5.60
2022-10-29T03:44:25.851Z,6.30
2022-10-29T03:46:52.426Z,6.13
2022-10-29T03:49:19.069Z,5.67
2022-10-29T03:51:45.602Z,6.17
2022-10-29T03:54:12.097Z,6.43
2022-10-29T03:56:38.640Z,6.30
2022-10-29T03:59:05.194Z,6.07
2022-10-29T04:01:31.827Z,6.60
2022-10-29T04:03:58.621Z,6.20
2022-10-29T04:06:25.172Z,6.00
2022-10-29T04:08:51.711Z,5.90
2022-10-29T04:11:18.339Z,6.23
2022-10-29T04:13:44.881Z,6.37
2022-10-29T04:16:11.381Z,6.87
2022-10-29T04:18:37.896Z,6.30
2022-10-29T04:29:24.958Z,6.00
2022-10-29T04:31:51.557Z,6.00
2022-10-29T04:34:18.222Z,6.63
2022-10-29T04:36:44.763Z,6.67
2022-10-29T04:39:11.220Z,6.13
2022-10-29T04:41:37.873Z,5.97
2022-10-29T04:44:04.538Z,5.90
2022-10-29T04:46:31.072Z,6.50
2022-10-29T04:48:57.649Z,6.70
2022-10-29T04:51:26.038Z,6.23
2022-10-29T04:53:52.817Z,6.17
2022-10-29T04:56:19.350Z,6.27
2022-10-29T04:58:45.874Z,6.03
2022-10-29T05:01:12.478Z,6.17
2022-10-29T05:03:39.065Z,5.73
2022-10-29T05:06:06.456Z,5.70
2022-10-29T05:08:33.622Z,6.00
2022-10-29T05:11:04.873Z,6.17
2022-10-29T05:13:31.722Z,6.80
2022-10-29T05:15:58.503Z,5.77
2022-10-29T05:18:25.327Z,6.03
2022-10-29T05:20:56.159Z,6.40
2022-10-29T05:23:23.409Z,6.73
2022-10-29T05:25:52.050Z,6.60
2022-10-29T05:28:21.432Z,6.63
2022-10-29T05:30:49.526Z,6.10
2022-10-29T05:33:18.654Z,6.37
2022-10-29T05:35:45.530Z,6.87
2022-10-29T05:38:12.958Z,6.57
2022-10-29T05:40:40.214Z,6.50
2022-10-29T05:43:06.730Z,6.90
2022-10-29T05:45:33.336Z,6.63
2022-10-29T05:48:01.589Z,6.50
2022-10-29T05:50:29.357Z,6.07
2022-10-29T05:53:00.478Z,7.40
2022-10-29T05:55:27.681Z,7.70
2022-10-29T05:57:58.850Z,6.53
2022-10-29T06:00:27.478Z,7.00
2022-10-29T06:02:54.404Z,7.07
2022-10-29T06:05:21.645Z,6.63
2022-10-29T06:07:57.257Z,6.60
2022-10-29T06:10:25.428Z,6.23
2022-10-29T06:12:51.978Z,6.70
2022-10-29T06:15:18.980Z,6.60
2022-10-29T06:17:46.549Z,7.60
2022-10-29T06:20:14.604Z,7.67
2022-10-29T06:22:41.265Z,6.93
2022-10-29T06:25:08.239Z,6.73
2022-10-29T06:27:34.856Z,6.33
2022-10-29T06:30:01.825Z,6.53
2022-10-29T06:32:28.456Z,5.90
2022-10-29T06:34:54.998Z,6.80
2022-10-29T06:37:21.551Z,6.00
2022-10-29T06:39:48.262Z,6.80
2022-10-29T06:42:14.778Z,7.30
2022-10-29T06:44:41.297Z,7.07
2022-10-29T06:47:07.891Z,6.30
2022-10-29T06:49:34.453Z,6.63
2022-10-29T06:52:00.945Z,7.60
2022-10-29T06:54:27.544Z,6.73
2022-10-29T06:56:54.209Z,6.80
2022-10-29T06:59:20.792Z,6.37
2022-10-29T07:01:47.397Z,6.33
2022-10-29T07:04:13.897Z,7.47
2022-10-29T07:06:40.395Z,10.93
2022-10-29T07:09:07.019Z,8.53
2022-10-29T07:11:33.431Z,7.87
2022-10-29T07:14:00.253Z,7.33
2022-10-29T07:16:26.677Z,6.73
2022-10-29T07:18:53.992Z,7.37
2022-10-29T07:21:20.616Z,6.47
2022-10-29T07:23:47.368Z,6.63
2022-10-29T07:26:13.913Z,6.63
2022-10-29T07:28:40.533Z,6.70
2022-10-29T07:31:08.144Z,6.53
2022-10-29T07:33:34.644Z,8.33
2022-10-29T07:36:01.501Z,8.20
2022-10-29T07:38:28.050Z,7.63
2022-10-29T07:40:54.760Z,7.10
2022-10-29T07:43:22.664Z,6.47
2022-10-29T07:45:50.830Z,8.17
2022-10-29T07:48:18.835Z,7.90
2022-10-29T07:50:46.286Z,6.97
2022-10-29T07:53:12.867Z,7.07
2022-10-29T07:55:39.334Z,6.90
2022-10-29T07:58:09.545Z,6.67
2022-10-29T08:00:37.956Z,8.07
2022-10-29T08:03:05.117Z,7.67
2022-10-29T08:05:32.266Z,15.73
2022-10-29T08:07:59.938Z,11.43
2022-10-29T08:10:27.320Z,10.97
2022-10-29T08:12:56.988Z,10.13
2022-10-29T08:15:24.186Z,8.90
2022-10-29T08:17:50.944Z,9.00
2022-10-29T08:20:18.247Z,9.47
2022-10-29T08:22:44.796Z,8.97
2022-10-29T08:25:12.180Z,8.60
2022-10-29T08:27:38.870Z,7.70
2022-10-29T08:30:06.678Z,8.10
2022-10-29T08:32:33.291Z,7.90
2022-10-29T08:34:59.825Z,7.60
2022-10-29T08:37:26.327Z,7.73
2022-10-29T08:39:52.922Z,7.43
2022-10-29T08:42:42.012Z,7.33
2022-10-29T08:45:35.246Z,7.80
2022-10-29T08:48:25.977Z,7.00
2022-10-29T08:51:09.053Z,7.67
2022-10-29T08:53:42.618Z,6.97
2022-10-29T08:56:29.736Z,7.03
2022-10-29T08:59:01.803Z,6.80
2022-10-29T09:01:28.505Z,7.13
2022-10-29T09:03:55.166Z,6.40
2022-10-29T09:06:43.452Z,6.27
2022-10-29T09:09:16.047Z,6.10
2022-10-29T09:12:04.353Z,6.53
2022-10-29T09:15:07.451Z,5.53
2022-10-29T09:17:37.976Z,6.40
2022-10-29T09:20:13.969Z,6.27
2022-10-29T09:23:01.967Z,5.73
2022-10-29T09:25:35.496Z,6.57
2022-10-29T09:28:08.211Z,5.67
2022-10-29T09:30:43.242Z,5.17
2022-10-29T09:33:14.715Z,5.53
2022-10-29T09:35:44.991Z,4.80
2022-10-29T09:38:31.726Z,5.30
2022-10-29T09:40:59.620Z,5.47
2022-10-29T09:43:49.099Z,5.63
2022-10-29T09:46:21.694Z,5.00
2022-10-29T09:49:27.050Z,4.83
2022-10-29T09:51:55.329Z,4.83
2022-10-29T09:54:23.738Z,5.23
2022-10-29T09:56:54.935Z,5.17
2022-10-29T09:59:35.101Z,4.80
2022-10-29T10:02:01.761Z,4.73
2022-10-29T10:04:36.162Z,4.87
2022-10-29T10:07:09.828Z,5.40
2022-10-29T10:09:52.880Z,4.53
2022-10-29T10:12:20.971Z,4.23
2022-10-29T10:14:50.523Z,4.47
2022-10-29T10:17:17.070Z,4.73
2022-10-29T10:19:45.842Z,4.40
2022-10-29T10:22:21.029Z,5.13
2022-10-29T10:24:48.083Z,4.77
2022-10-29T10:27:17.573Z,4.80
2022-10-29T10:29:45.071Z,5.03
2022-10-29T10:32:16.396Z,3.83
2022-10-29T10:34:42.920Z,4.83
2022-10-29T10:37:09.443Z,4.63
2022-10-29T10:39:45.048Z,4.90
2022-10-29T10:42:39.697Z,4.13
2022-10-29T10:45:15.420Z,4.10
2022-10-29T10:47:50.874Z,5.40
2022-10-29T10:50:31.908Z,4.87
2022-10-29T10:53:01.207Z,4.13
2022-10-29T10:55:32.586Z,4.87
2022-10-29T10:57:59.014Z,4.77
2022-10-29T11:00:37.320Z,4.50
2022-10-29T11:03:19.471Z,4.63
2022-10-29T11:05:55.100Z,4.27
2022-10-29T11:08:26.048Z,4.20
2022-10-29T11:10:55.467Z,5.27
2022-10-29T11:13:23.834Z,4.80
2022-10-29T11:16:07.948Z,4.60
2022-10-29T11:19:08.826Z,4.90
2022-10-29T11:21:41.837Z,4.37
2022-10-29T11:24:22.428Z,4.40
2022-10-29T11:27:23.609Z,4.23
2022-10-29T11:30:06.321Z,4.63
2022-10-29T11:32:51.348Z,4.67
2022-10-29T11:35:22.947Z,4.63
2022-10-29T11:38:02.732Z,4.37
2022-10-29T11:40:35.187Z,4.37
2022-10-29T11:43:08.445Z,4.80
2022-10-29T11:45:47.579Z,4.27
2022-10-29T11:48:30.673Z,4.53
2022-10-29T11:51:35.815Z,4.90
2022-10-29T11:54:14.464Z,4.63
2022-10-29T11:57:00.186Z,3.90
2022-10-29T11:59:57.549Z,4.30
2022-10-29T12:02:39.498Z,4.33
2022-10-29T12:05:30.695Z,4.30
2022-10-29T12:08:18.644Z,4.70
2022-10-29T12:10:56.689Z,4.53
2022-10-29T12:13:41.632Z,4.20
2022-10-29T12:16:36.204Z,4.30
2022-10-29T12:19:30.073Z,4.80
2022-10-29T12:22:19.800Z,4.50
2022-10-29T12:25:06.171Z,4.37
2022-10-29T12:28:08.581Z,4.40
2022-10-29T12:30:39.894Z,4.20
2022-10-29T12:33:21.466Z,4.47
2022-10-29T12:36:15.896Z,4.27
2022-10-29T12:38:45.075Z,3.60
2022-10-29T12:41:23.210Z,4.27
2022-10-29T12:43:53.775Z,4.53
2022-10-29T12:46:35.677Z,4.47
2022-10-29T12:49:08.205Z,4.47
2022-10-29T12:52:00.198Z,4.50
2022-10-29T12:54:40.076Z,4.27
2022-10-29T12:57:12.709Z,4.30
2022-10-29T12:59:40.213Z,4.97
2022-10-29T13:02:37.604Z,4.47
2022-10-29T13:05:07.193Z,4.50
2022-10-29T13:07:34.431Z,4.83
2022-10-29T13:10:23.098Z,4.63
2022-10-29T13:13:15.810Z,4.60
2022-10-29T13:16:02.650Z,4.50
2022-10-29T13:18:44.769Z,4.60
2022-10-29T13:21:11.420Z,4.40
2022-10-29T13:23:38.134Z,3.70
2022-10-29T13:26:06.081Z,3.90
2022-10-29T13:28:35.568Z,4.03
2022-10-29T13:31:01.999Z,4.27
2022-10-29T13:33:28.519Z,4.10
2022-10-29T13:35:56.151Z,4.50
2022-10-29T13:39:04.504Z,4.30
2022-10-29T13:41:42.945Z,3.97
2022-10-29T13:44:28.107Z,4.30
2022-10-29T13:47:06.591Z,4.47
2022-10-29T13:49:39.727Z,3.70
2022-10-29T13:52:09.362Z,3.83
2022-10-29T13:54:57.778Z,4.30
2022-10-29T13:57:34.805Z,4.30
2022-10-29T14:00:10.563Z,4.43
2022-10-29T14:02:39.524Z,3.80
2022-10-29T14:05:13.103Z,4.30
2022-10-29T14:07:58.851Z,3.87
2022-10-29T14:13:13.944Z,4.33
2022-10-29T14:16:07.847Z,4.63
2022-10-29T14:18:57.022Z,4.30
2022-10-29T14:21:28.849Z,6.23
2022-10-29T14:24:06.614Z,7.60
2022-10-29T14:26:38.161Z,6.00
2022-10-29T14:29:24.972Z,5.90
2022-10-29T14:32:07.474Z,4.90
2022-10-29T14:34:34.220Z,5.50
2022-10-29T14:37:08.097Z,6.77
2022-10-29T14:39:57.212Z,5.50
2022-10-29T14:42:30.245Z,4.23
2022-10-29T14:44:58.181Z,4.60
2022-10-29T14:47:33.262Z,5.20
2022-10-29T14:50:02.809Z,11.83
2022-10-29T14:52:32.951Z,6.40
2022-10-29T14:55:03.304Z,5.37
2022-10-29T14:57:32.781Z,4.30
2022-10-29T15:00:02.388Z,4.20
2022-10-29T15:02:38.219Z,3.90
2022-10-29T15:05:33.216Z,4.50
2022-10-29T15:08:08.875Z,4.03
2022-10-29T15:10:49.044Z,6.53
2022-10-29T15:13:27.537Z,7.07
2022-10-29T15:16:00.555Z,6.77
2022-10-29T15:18:27.401Z,6.33
2022-10-29T15:20:55.187Z,6.07
2022-10-29T15:23:36.781Z,5.53
2022-10-29T15:26:23.616Z,5.70
2022-10-29T15:28:52.707Z,5.30
2022-10-29T15:31:34.742Z,7.87
2022-10-29T15:34:07.801Z,7.47
2022-10-29T15:36:52.321Z,8.97
2022-10-29T15:39:27.047Z,7.40
2022-10-29T15:42:00.264Z,6.00
2022-10-29T15:44:29.922Z,5.47
2022-10-29T15:47:01.042Z,12.70
2022-10-29T15:49:31.497Z,5.87
2022-10-29T15:52:00.496Z,7.20
2022-10-29T15:54:27.747Z,8.00
2022-10-29T15:56:54.388Z,7.57
2022-10-29T15:59:23.787Z,6.90
2022-10-29T16:01:50.506Z,5.73
2022-10-29T16:04:17.239Z,6.80
2022-10-29T16:06:43.769Z,8.37
2022-10-29T16:09:17.379Z,6.90
2022-10-29T16:11:43.931Z,7.50
2022-10-29T16:14:10.559Z,7.17
2022-10-29T16:16:37.592Z,6.23
2022-10-29T16:19:04.140Z,6.33
2022-10-29T16:21:30.824Z,6.93
2022-10-29T16:23:57.261Z,7.57
2022-10-29T16:26:25.343Z,12.87
2022-10-29T16:28:53.270Z,9.73
2022-10-29T16:31:27.732Z,7.67
2022-10-29T16:33:57.298Z,7.27
2022-10-29T16:36:24.310Z,7.37
2022-10-29T16:38:50.870Z,7.20
2022-10-29T16:41:18.757Z,7.10
2022-10-29T16:43:46.050Z,6.70
2022-10-29T16:46:13.317Z,6.27
2022-10-29T16:48:40.410Z,7.63
2022-10-29T16:51:07.217Z,7.23
2022-10-29T16:53:33.951Z,7.83
2022-10-29T16:56:01.652Z,7.70
2022-10-29T16:58:28.338Z,11.53
2022-10-29T17:01:15.450Z,20.53
2022-10-29T17:03:42.100Z,14.90
2022-10-29T17:06:10.220Z,7.87
2022-10-29T17:08:37.623Z,7.10
2022-10-29T17:11:06.393Z,6.70
2022-10-29T17:13:34.486Z,7.30
2022-10-29T17:16:01.275Z,6.60
2022-10-29T17:18:27.909Z,6.40
2022-10-29T17:20:59.278Z,6.17
2022-10-29T17:23:26.326Z,5.50
2022-10-29T17:25:54.458Z,5.57
2022-10-29T17:28:22.018Z,6.27
2022-10-29T17:30:48.721Z,6.53
2022-10-29T17:33:16.425Z,6.67
2022-10-29T17:35:44.035Z,8.67
2022-10-29T17:38:11.054Z,8.67
2022-10-29T17:40:37.843Z,14.70
2022-10-29T17:43:04.509Z,10.53
2022-10-29T17:45:31.319Z,8.13
2022-10-29T17:47:58.765Z,7.13
2022-10-29T17:50:26.414Z,6.47
2022-10-29T17:52:53.931Z,6.23
2022-10-29T17:55:20.675Z,7.80
2022-10-29T17:57:47.218Z,8.33
2022-10-29T18:00:14.348Z,6.70
2022-10-29T18:02:41.119Z,6.90
2022-10-29T18:05:07.996Z,6.60
2022-10-29T18:07:34.684Z,6.23
2022-10-29T18:10:01.360Z,6.50
2022-10-29T18:12:28.688Z,7.30
2022-10-29T18:14:55.181Z,7.40
2022-10-29T18:17:21.700Z,7.27
2022-10-29T18:19:48.241Z,6.33
2022-10-29T18:22:14.900Z,7.43
2022-10-29T18:24:41.539Z,6.70
2022-10-29T18:27:08.032Z,6.50
2022-10-29T18:29:34.686Z,7.27
2022-10-29T18:32:01.678Z,6.90
2022-10-29T18:34:28.915Z,6.33
2022-10-29T18:36:55.496Z,6.40
2022-10-29T18:39:22.104Z,6.27
2022-10-29T18:41:48.680Z,6.77
2022-10-29T18:44:15.220Z,7.23
2022-10-29T18:46:41.840Z,7.10
2022-10-29T18:49:11.022Z,6.40
2022-10-29T18:51:37.518Z,6.00
2022-10-29T18:54:04.364Z,6.43
2022-10-29T18:56:31.151Z,6.97
2022-10-29T18:58:58.867Z,7.00
2022-10-29T19:01:31.926Z,7.50
2022-10-29T19:04:06.941Z,6.37
2022-10-29T19:06:35.576Z,6.30
2022-10-29T19:09:04.654Z,5.80
2022-10-29T19:11:31.560Z,5.93
2022-10-29T19:14:03.304Z,6.90
2022-10-29T19:16:31.174Z,6.90
2022-10-29T19:18:59.780Z,6.90
2022-10-29T19:21:27.221Z,6.97
2022-10-29T19:23:58.075Z,6.30
2022-10-29T19:26:26.532Z,6.80
2022-10-29T19:28:53.490Z,7.67
2022-10-29T19:31:26.593Z,7.87
2022-10-29T19:33:55.939Z,7.57
2022-10-29T19:36:23.199Z,6.50
2022-10-29T19:38:49.885Z,5.77
2022-10-29T19:41:17.011Z,6.43
2022-10-29T19:43:44.053Z,5.60
2022-10-29T19:46:13.918Z,6.77
2022-10-29T19:48:40.925Z,6.63
2022-10-29T19:51:08.671Z,6.40
2022-10-29T19:53:38.007Z,7.23
2022-10-29T19:56:06.102Z,20.30
2022-10-29T19:58:33.376Z,10.50
2022-10-29T20:01:16.463Z,7.80
2022-10-29T20:03:43.646Z,7.70
2022-10-29T20:06:10.483Z,7.07
2022-10-29T20:08:37.499Z,7.03
2022-10-29T20:11:04.768Z,7.07
2022-10-29T20:13:31.770Z,6.20
2022-10-29T20:15:58.635Z,5.10
2022-10-29T20:18:25.730Z,5.57
2022-10-29T20:20:58.302Z,5.33
2022-10-29T20:23:27.797Z,5.50
2022-10-29T20:25:54.313Z,4.93
2022-10-29T20:28:20.897Z,5.07
2022-10-29T20:30:47.579Z,4.63
2022-10-29T20:33:14.526Z,4.70
2022-10-29T20:35:41.298Z,5.20
2022-10-29T20:38:07.924Z,4.50
2022-10-29T20:40:34.565Z,4.40
2022-10-29T20:43:01.156Z,4.80
2022-10-29T20:45:27.817Z,5.10
2022-10-29T20:47:54.474Z,4.90
2022-10-29T20:50:21.143Z,5.17
2022-10-29T20:52:48.968Z,5.10
2022-10-29T20:55:16.757Z,4.20
2022-10-29T20:57:43.414Z,4.37
2022-10-29T21:00:10.601Z,4.53
2022-10-29T21:02:37.307Z,4.60
2022-10-29T21:05:04.253Z,4.30
2022-10-29T21:07:30.772Z,4.63
2022-10-29T21:09:57.402Z,4.30
2022-10-29T21:12:23.946Z,4.00
2022-10-29T21:14:50.538Z,4.10
2022-10-29T21:17:17.055Z,4.23
2022-10-29T21:19:43.622Z,4.40
2022-10-29T21:22:10.024Z,4.30
2022-10-29T21:24:38.293Z,4.70
2022-10-29T21:27:06.792Z,4.20
2022-10-29T21:29:33.347Z,4.10
2022-10-29T21:31:59.879Z,4.20
2022-10-29T21:34:26.394Z,4.60
2022-10-29T21:36:52.871Z,4.30
2022-10-29T21:39:19.484Z,4.30
2022-10-29T21:41:46.027Z,4.07
2022-10-29T21:44:12.638Z,4.33
2022-10-29T21:46:39.119Z,4.20
2022-10-29T21:49:05.787Z,4.17
2022-10-29T21:51:32.375Z,4.90
2022-10-29T21:53:58.902Z,4.50
2022-10-29T21:56:25.747Z,4.10
2022-10-29T21:58:55.103Z,4.07
2022-10-29T22:01:23.868Z,4.10
2022-10-29T22:03:50.573Z,4.23
2022-10-29T22:06:19.150Z,3.67
2022-10-29T22:08:46.571Z,4.03
2022-10-29T22:11:14.651Z,3.80
2022-10-29T22:13:41.332Z,4.13
2022-10-29T22:16:09.045Z,3.50
2022-10-29T22:18:36.671Z,4.00
2022-10-29T22:21:04.030Z,4.10
2022-10-29T22:23:30.715Z,4.10
2022-10-29T22:25:57.310Z,3.83
2022-10-29T22:28:23.887Z,3.77
2022-10-29T22:30:57.430Z,4.37
2022-10-29T22:33:24.084Z,3.87
2022-10-29T22:35:50.682Z,4.00
2022-10-29T22:38:17.366Z,3.50
2022-10-29T22:40:43.954Z,4.10
2022-10-29T22:43:11.935Z,3.60
2022-10-29T22:45:38.674Z,4.10
2022-10-29T22:48:05.464Z,4.30
2022-10-29T22:50:32.034Z,3.63
2022-10-29T22:52:58.935Z,4.17
2022-10-29T22:55:25.708Z,4.37
2022-10-29T22:57:52.217Z,3.63
2022-10-29T23:00:18.909Z,3.50
2022-10-29T23:02:46.119Z,4.33
2022-10-29T23:05:12.637Z,4.20
2022-10-29T23:07:39.135Z,3.70
2022-10-29T23:10:06.120Z,4.67
2022-10-29T23:12:32.599Z,3.90
2022-10-29T23:14:59.253Z,3.90
2022-10-29T23:17:25.872Z,4.43
2022-10-29T23:19:56.238Z,3.93
2022-10-29T23:22:24.842Z,3.73
2022-10-29T23:24:53.933Z,4.20
2022-10-29T23:27:20.506Z,4.63
2022-10-29T23:29:47.055Z,4.50
2022-10-29T23:32:13.575Z,4.30
2022-10-29T23:34:40.031Z,4.30
2022-10-29T23:37:09.746Z,4.03
2022-10-29T23:39:36.702Z,4.70
2022-10-29T23:42:03.421Z,4.10
2022-10-29T23:44:30.045Z,3.77
2022-10-29T23:46:56.566Z,3.77
2022-10-29T23:49:23.216Z,4.30
2022-10-29T23:51:49.664Z,4.17
2022-10-29T23:54:16.322Z,3.60
2022-10-29T23:56:42.848Z,4.17
2022-10-29T23:59:09.478Z,4.37
